createdAt,value
2023-03-24T00:00:33.398Z,174.25
2023-03-24T00:03:02.754Z,171.45
2023-03-24T00:05:30.720Z,180.88
2023-03-24T00:08:02.217Z,200.07
2023-03-24T00:10:34.491Z,196.50
2023-03-24T00:13:01.867Z,198.20
2023-03-24T00:15:29.856Z,201.25
2023-03-24T00:17:58.021Z,205.27
2023-03-24T00:20:26.848Z,200.32
2023-03-24T00:22:59.405Z,202.07
2023-03-24T00:25:33.971Z,195.43
2023-03-24T00:28:02.976Z,198.27
2023-03-24T00:30:30.044Z,201.50
2023-03-24T00:32:58.960Z,198.80
2023-03-24T00:35:26.355Z,197.68
2023-03-24T00:37:53.449Z,200.20
2023-03-24T00:40:22.061Z,199.95
2023-03-24T00:42:50.397Z,193.88
2023-03-24T00:45:23.196Z,199.00
2023-03-24T00:47:54.074Z,195.60
2023-03-24T00:50:27.400Z,190.43
2023-03-24T00:52:56.288Z,134.98
2023-03-24T00:55:23.601Z,196.02
2023-03-24T00:57:51.340Z,196.05
2023-03-24T01:00:25.362Z,197.55
2023-03-24T01:02:57.656Z,196.75
2023-03-24T01:05:29.716Z,194.47
2023-03-24T01:08:03.101Z,194.20
2023-03-24T01:10:35.802Z,195.57
2023-03-24T01:13:04.028Z,197.37
2023-03-24T01:15:33.992Z,197.13
2023-03-24T01:18:02.323Z,197.50
2023-03-24T01:20:34.030Z,190.53
2023-03-24T01:23:05.155Z,191.05
2023-03-24T01:25:32.990Z,192.43
2023-03-24T01:28:00.041Z,194.60
2023-03-24T01:30:29.432Z,198.40
2023-03-24T01:32:57.279Z,188.20
2023-03-24T01:35:28.555Z,193.40
2023-03-24T01:37:57.079Z,192.57
2023-03-24T01:40:28.922Z,192.53
2023-03-24T01:42:56.369Z,193.77
2023-03-24T01:45:56.380Z,195.43
2023-03-24T01:48:42.181Z,191.87
2023-03-24T01:51:31.486Z,191.87
2023-03-24T01:54:16.139Z,190.87
2023-03-24T01:56:50.881Z,191.27
2023-03-24T01:59:23.341Z,189.37
2023-03-24T02:02:09.828Z,191.87
2023-03-24T02:04:48.444Z,187.33
2023-03-24T02:08:02.184Z,189.93
2023-03-24T02:10:33.463Z,186.03
2023-03-24T02:13:01.418Z,194.73
2023-03-24T02:15:31.185Z,191.00
2023-03-24T02:18:20.948Z,190.23
2023-03-24T02:21:09.640Z,192.47
2023-03-24T02:24:29.577Z,187.63
2023-03-24T02:27:30.730Z,189.53
2023-03-24T02:30:10.193Z,189.23
2023-03-24T02:33:17.939Z,141.18
2023-03-24T02:36:38.434Z,188.80
2023-03-24T02:39:38.013Z,167.20
2023-03-24T02:42:48.146Z,176.90
2023-03-24T02:45:31.650Z,187.53
2023-03-24T02:48:21.703Z,189.03
2023-03-24T02:51:00.901Z,187.10
2023-03-24T02:53:57.372Z,187.30
2023-03-24T02:57:00.576Z,188.23
2023-03-24T03:00:09.140Z,185.83
2023-03-24T03:03:29.042Z,189.03
2023-03-24T03:06:12.747Z,188.13
2023-03-24T03:08:41.036Z,188.53
2023-03-24T03:11:13.440Z,191.13
2023-03-24T03:13:49.869Z,188.23
2023-03-24T03:16:38.975Z,189.90
2023-03-24T03:19:19.022Z,186.73
2023-03-24T03:21:50.566Z,185.50
2023-03-24T03:24:27.024Z,191.93
2023-03-24T03:27:10.107Z,189.37
2023-03-24T05:27:38.812Z,195.67
2023-03-24T05:30:24.503Z,198.47
2023-03-24T05:32:56.880Z,196.10
2023-03-24T05:35:24.903Z,200.40
2023-03-24T05:37:52.579Z,188.60
2023-03-24T05:40:19.749Z,152.83
2023-03-24T05:43:12.380Z,201.10
2023-03-24T05:45:45.327Z,194.53
2023-03-24T05:48:23.301Z,196.43
2023-03-24T05:51:08.828Z,199.10
2023-03-24T05:53:35.960Z,197.87
2023-03-24T05:56:13.930Z,196.27
2023-03-24T05:59:05.179Z,197.10
2023-03-24T06:01:53.323Z,202.17
2023-03-24T06:04:30.439Z,198.60
2023-03-24T06:07:04.082Z,202.57
2023-03-24T06:09:40.903Z,203.50
2023-03-24T06:12:10.288Z,200.40
2023-03-24T06:14:45.513Z,204.43
2023-03-24T06:17:16.498Z,200.30
2023-03-24T06:19:49.442Z,203.47
2023-03-24T06:22:25.080Z,201.10
2023-03-24T06:24:53.820Z,200.10
2023-03-24T06:27:25.530Z,203.20
2023-03-24T06:29:53.755Z,200.33
2023-03-24T06:32:21.435Z,205.40
2023-03-24T06:34:48.991Z,200.60
2023-03-24T06:37:38.537Z,202.80
2023-03-24T06:40:12.788Z,198.80
2023-03-24T06:42:44.218Z,195.47
2023-03-24T06:45:11.678Z,198.37
2023-03-24T06:47:39.043Z,198.80
2023-03-24T06:50:08.689Z,211.80
2023-03-24T06:52:36.468Z,203.47
2023-03-24T06:55:05.169Z,199.88
2023-03-24T06:57:32.327Z,202.00
2023-03-24T07:00:31.697Z,204.77
2023-03-24T07:03:23.525Z,197.00
2023-03-24T07:06:20.195Z,193.95
2023-03-24T07:08:53.902Z,203.43
2023-03-24T07:11:24.377Z,199.67
2023-03-24T07:13:57.610Z,201.57
2023-03-24T07:16:24.904Z,207.30
2023-03-24T07:19:02.818Z,203.03
2023-03-24T07:21:34.022Z,206.77
2023-03-24T07:24:02.245Z,206.43
2023-03-24T07:26:45.149Z,206.47
2023-03-24T07:29:21.076Z,213.87
2023-03-24T07:32:02.059Z,199.83
2023-03-24T07:34:29.258Z,203.68
2023-03-24T07:36:56.394Z,200.87
2023-03-24T07:39:23.555Z,207.33
2023-03-24T07:41:51.711Z,209.15
2023-03-24T07:44:29.303Z,203.88
2023-03-24T07:46:59.003Z,207.50
2023-03-24T07:49:27.338Z,204.30
2023-03-24T07:52:06.537Z,212.63
2023-03-24T07:54:45.451Z,203.60
2023-03-24T07:57:26.931Z,211.90
2023-03-24T07:59:54.124Z,209.07
2023-03-24T08:02:39.552Z,207.15
2023-03-24T08:05:44.163Z,209.85
2023-03-24T08:08:18.803Z,213.85
2023-03-24T08:10:46.510Z,208.27
2023-03-24T08:13:13.657Z,200.68
2023-03-24T08:15:41.119Z,184.82
2023-03-24T08:18:08.255Z,193.80
2023-03-24T08:20:35.298Z,198.90
2023-03-24T08:23:04.778Z,208.25
2023-03-24T08:25:32.063Z,203.45
2023-03-24T08:27:59.086Z,190.25
2023-03-24T08:30:28.116Z,177.95
2023-03-24T08:33:01.997Z,200.68
2023-03-24T08:35:38.895Z,205.50
2023-03-24T08:38:08.425Z,203.50
2023-03-24T08:40:38.662Z,204.77
2023-03-24T08:43:08.867Z,212.40
2023-03-24T08:45:36.933Z,200.77
2023-03-24T08:48:07.792Z,210.20
2023-03-24T08:50:39.908Z,209.03
2023-03-24T08:53:08.104Z,203.68
2023-03-24T08:55:37.876Z,207.10
2023-03-24T08:58:04.930Z,206.20
2023-03-24T09:00:31.929Z,203.77
2023-03-24T09:03:01.211Z,202.55
2023-03-24T09:05:41.379Z,203.43
2023-03-24T09:08:12.765Z,207.65
2023-03-24T09:10:41.484Z,207.63
2023-03-24T09:13:08.782Z,208.95
2023-03-24T09:15:36.242Z,211.80
2023-03-24T09:18:03.437Z,209.95
2023-03-24T09:20:31.062Z,211.68
2023-03-24T09:22:58.028Z,210.05
2023-03-24T09:25:25.017Z,208.25
2023-03-24T09:27:52.622Z,202.98
2023-03-24T09:30:19.826Z,213.13
2023-03-24T09:32:47.007Z,213.75
2023-03-24T09:35:15.142Z,245.68
2023-03-24T09:37:43.782Z,218.18
2023-03-24T09:40:23.880Z,225.07
2023-03-24T09:43:18.052Z,217.95
2023-03-24T09:45:54.268Z,223.90
2023-03-24T09:48:48.845Z,218.23
2023-03-24T09:51:29.590Z,217.65
2023-03-24T09:54:28.580Z,239.43
2023-03-24T09:56:57.602Z,221.77
2023-03-24T09:59:39.837Z,220.20
2023-03-24T10:02:16.751Z,228.25
2023-03-24T10:04:43.765Z,217.85
2023-03-24T10:07:22.958Z,217.10
2023-03-24T10:10:00.006Z,224.95
2023-03-24T10:12:39.352Z,227.75
2023-03-24T10:15:41.825Z,224.18
2023-03-24T10:18:32.607Z,217.52
2023-03-24T10:21:25.152Z,212.40
2023-03-24T10:24:16.619Z,198.98
2023-03-24T10:26:55.536Z,198.63
2023-03-24T10:29:33.176Z,186.85
2023-03-24T10:32:16.695Z,205.27
2023-03-24T10:34:46.101Z,218.85
2023-03-24T10:37:16.425Z,220.63
2023-03-24T10:39:45.036Z,230.20
2023-03-24T10:42:25.657Z,219.68
2023-03-24T10:44:53.208Z,225.52
2023-03-24T10:47:26.153Z,241.85
2023-03-24T10:50:12.523Z,226.00
2023-03-24T10:52:50.498Z,220.90
2023-03-24T10:55:21.240Z,202.35
2023-03-24T10:57:53.612Z,208.40
2023-03-24T11:00:29.776Z,201.82
2023-03-24T11:03:01.723Z,210.82
2023-03-24T11:05:41.360Z,208.00
2023-03-24T11:08:17.641Z,157.15
2023-03-24T11:10:45.327Z,165.45
2023-03-24T11:13:42.851Z,183.63
2023-03-24T11:16:16.150Z,181.13
2023-03-24T11:18:57.844Z,152.73
2023-03-24T11:21:27.141Z,158.55
2023-03-24T11:23:54.131Z,148.23
2023-03-24T11:26:40.993Z,156.93
2023-03-24T11:29:19.246Z,171.18
2023-03-24T11:31:58.522Z,195.27
2023-03-24T11:34:38.746Z,68.68
2023-03-24T11:37:12.476Z,73.03
2023-03-24T11:39:39.500Z,87.30
2023-03-24T11:42:12.167Z,72.38
2023-03-24T11:44:39.200Z,81.85
2023-03-24T11:47:14.134Z,106.68
2023-03-24T11:50:04.880Z,157.20
2023-03-24T11:52:39.592Z,178.68
2023-03-24T11:55:17.907Z,144.20
2023-03-24T11:58:14.960Z,128.15
2023-03-24T12:00:55.818Z,176.57
2023-03-24T12:04:03.137Z,170.48
2023-03-24T12:07:07.346Z,191.00
2023-03-24T12:10:19.245Z,132.52
2023-03-24T12:13:29.963Z,113.50
2023-03-24T12:16:20.865Z,88.72
2023-03-24T12:19:19.822Z,146.98
2023-03-24T12:22:04.577Z,194.70
2023-03-24T12:24:58.353Z,169.90
2023-03-24T12:28:10.235Z,158.68
2023-03-24T12:31:01.943Z,121.47
2023-03-24T12:34:03.197Z,119.03
2023-03-24T12:36:58.683Z,76.75
2023-03-24T12:39:35.719Z,141.57
2023-03-24T12:42:13.026Z,151.35
2023-03-24T12:45:26.302Z,194.45
2023-03-24T12:48:05.495Z,155.68
2023-03-24T12:51:30.332Z,124.20
2023-03-24T12:54:56.790Z,131.45
2023-03-24T12:57:27.339Z,65.10
2023-03-24T13:00:01.658Z,142.68
2023-03-24T13:02:48.889Z,155.32
2023-03-24T13:05:21.507Z,130.35
2023-03-24T13:07:55.294Z,135.63
2023-03-24T13:10:29.658Z,120.07
2023-03-24T13:13:05.256Z,31.42
2023-03-24T13:15:59.117Z,29.42
2023-03-24T13:18:49.484Z,19.95
2023-03-24T13:21:26.442Z,24.08
2023-03-24T13:24:15.266Z,32.25
2023-03-24T13:27:18.811Z,21.80
2023-03-24T13:30:12.130Z,15.98
2023-03-24T13:32:50.061Z,14.77
2023-03-24T13:35:41.074Z,8.05
2023-03-24T13:38:33.792Z,9.05
2023-03-24T13:41:06.355Z,11.38
2023-03-24T13:43:34.583Z,16.80
2023-03-24T13:46:13.824Z,35.30
2023-03-24T13:48:44.586Z,32.47
2023-03-24T13:51:20.481Z,33.22
2023-03-24T13:53:59.575Z,17.33
2023-03-24T13:56:40.200Z,23.15
2023-03-24T13:59:41.684Z,26.67
2023-03-24T14:02:22.372Z,42.28
2023-03-24T14:05:02.101Z,73.07
2023-03-24T14:07:41.079Z,93.85
2023-03-24T14:10:14.209Z,79.18
2023-03-24T14:12:59.515Z,98.40
2023-03-24T14:15:49.812Z,149.82
2023-03-24T14:18:37.799Z,172.95
2023-03-24T14:21:09.506Z,75.72
2023-03-24T14:23:52.523Z,43.10
2023-03-24T14:26:20.727Z,57.80
2023-03-24T14:28:52.467Z,55.47
2023-03-24T14:31:25.439Z,59.75
2023-03-24T14:34:01.999Z,25.75
2023-03-24T14:36:40.321Z,65.80
2023-03-24T14:39:18.629Z,94.75
2023-03-24T14:41:47.175Z,141.18
2023-03-24T14:44:14.226Z,38.88
2023-03-24T14:46:53.033Z,40.45
2023-03-24T14:49:29.399Z,54.45
2023-03-24T14:52:56.653Z,31.48
2023-03-24T14:55:23.931Z,21.23
2023-03-24T14:58:00.855Z,20.10
2023-03-24T15:01:03.921Z,35.30
2023-03-24T15:03:42.115Z,20.45
2023-03-24T15:06:23.188Z,20.00
2023-03-24T15:08:54.882Z,23.05
2023-03-24T15:11:32.738Z,34.88
2023-03-24T15:14:05.267Z,69.15
2023-03-24T15:16:38.082Z,76.93
2023-03-24T15:19:15.731Z,91.00
2023-03-24T15:22:06.144Z,55.65
2023-03-24T15:24:36.884Z,49.33
2023-03-24T15:27:06.582Z,72.18
2023-03-24T15:29:39.121Z,80.63
2023-03-24T15:32:07.535Z,96.00
2023-03-24T15:34:34.443Z,63.00
2023-03-24T15:37:05.376Z,71.22
2023-03-24T15:39:38.228Z,60.47
2023-03-24T15:42:08.383Z,52.83
2023-03-24T15:44:41.446Z,55.60
2023-03-24T15:47:28.278Z,114.82
2023-03-24T15:50:01.339Z,69.35
2023-03-24T15:52:37.802Z,38.88
2023-03-24T15:55:36.581Z,101.68
2023-03-24T15:58:25.195Z,58.95
2023-03-24T16:00:55.697Z,95.03
2023-03-24T16:03:26.487Z,137.93
2023-03-24T16:05:56.172Z,147.38
2023-03-24T16:08:29.536Z,98.78
2023-03-24T16:11:11.967Z,150.88
2023-03-24T16:13:42.237Z,119.28
2023-03-24T16:16:15.600Z,32.80
2023-03-24T16:18:48.666Z,73.78
2023-03-24T16:21:21.867Z,124.53
2023-03-24T16:23:51.509Z,105.95
2023-03-24T16:26:28.844Z,129.60
2023-03-24T16:29:08.992Z,106.05
2023-03-24T16:31:36.022Z,94.45
2023-03-24T16:34:03.029Z,125.38
2023-03-24T16:36:30.162Z,184.63
2023-03-24T16:38:59.822Z,154.68
2023-03-24T16:41:26.924Z,147.63
2023-03-24T16:43:54.440Z,147.18
2023-03-24T16:46:33.200Z,153.05
2023-03-24T16:49:03.626Z,128.25
2023-03-24T16:51:30.820Z,145.90
2023-03-24T16:53:58.548Z,125.50
2023-03-24T16:56:26.523Z,158.85
2023-03-24T16:58:54.518Z,139.65
2023-03-24T17:01:39.659Z,99.18
2023-03-24T17:04:19.530Z,85.25
2023-03-24T17:06:50.901Z,86.70
2023-03-24T17:09:18.053Z,88.65
2023-03-24T17:11:55.579Z,86.03
2023-03-24T17:14:22.814Z,92.72
2023-03-24T17:16:52.648Z,99.38
2023-03-24T17:19:22.726Z,101.25
2023-03-24T17:22:03.727Z,99.72
2023-03-24T17:24:38.035Z,109.78
2023-03-24T17:27:13.835Z,118.32
2023-03-24T17:29:40.796Z,111.18
2023-03-24T17:32:08.395Z,84.05
2023-03-24T17:34:35.372Z,85.25
2023-03-24T17:37:02.302Z,97.43
2023-03-24T17:39:29.359Z,97.18
2023-03-24T17:41:59.498Z,48.05
2023-03-24T17:44:26.459Z,111.00
2023-03-24T17:46:54.130Z,151.57
2023-03-24T17:49:21.632Z,153.55
2023-03-24T17:51:48.682Z,136.98
2023-03-24T17:54:19.132Z,147.13
2023-03-24T17:56:46.632Z,146.57
2023-03-24T17:59:13.628Z,146.75
2023-03-24T18:01:40.624Z,153.60
2023-03-24T18:04:08.041Z,143.05
2023-03-24T18:06:35.296Z,142.95
2023-03-24T18:09:02.282Z,126.80
2023-03-24T18:11:29.499Z,107.47
2023-03-24T18:13:56.445Z,131.77
2023-03-24T18:16:25.289Z,149.77
2023-03-24T18:18:52.296Z,143.52
2023-03-24T18:21:19.488Z,156.02
2023-03-24T18:23:47.224Z,150.80
2023-03-24T18:26:17.762Z,130.23
2023-03-24T18:28:46.141Z,137.00
2023-03-24T18:31:21.563Z,153.57
2023-03-24T18:33:50.267Z,159.15
2023-03-24T18:36:26.340Z,138.82
2023-03-24T18:39:02.396Z,137.52
2023-03-24T18:41:30.446Z,144.80
2023-03-24T18:43:59.503Z,142.88
2023-03-24T18:46:27.689Z,133.07
2023-03-24T18:48:54.789Z,120.03
2023-03-24T18:51:23.599Z,117.38
2023-03-24T18:53:51.114Z,86.75
2023-03-24T18:56:20.588Z,129.60
2023-03-24T18:58:48.724Z,140.25
2023-03-24T19:01:22.631Z,161.43
2023-03-24T19:03:51.992Z,150.55
2023-03-24T19:06:19.758Z,127.25
2023-03-24T19:08:51.694Z,154.73
2023-03-24T19:11:19.178Z,160.32
2023-03-24T19:13:47.310Z,158.48
2023-03-24T19:16:14.317Z,144.77
2023-03-24T19:18:42.539Z,142.27
2023-03-24T19:21:10.170Z,108.18
2023-03-24T19:23:37.269Z,144.00
2023-03-24T19:26:04.554Z,137.02
2023-03-24T19:28:35.108Z,169.18
2023-03-24T19:31:09.664Z,174.85
2023-03-24T19:33:38.101Z,181.15
2023-03-24T19:36:07.655Z,142.38
2023-03-24T19:38:36.981Z,144.38
2023-03-24T19:41:11.780Z,129.63
2023-03-24T19:43:39.017Z,127.80
2023-03-24T19:46:07.653Z,139.77
2023-03-24T19:48:35.563Z,142.30
2023-03-24T19:51:03.750Z,136.80
2023-03-24T19:53:31.091Z,140.80
2023-03-24T19:55:59.855Z,173.25
2023-03-24T19:58:26.972Z,187.90
2023-03-24T20:00:53.946Z,190.40
2023-03-24T20:03:21.551Z,191.45
2023-03-24T20:05:49.724Z,32.10
2023-03-24T20:08:19.094Z,18.95
2023-03-24T20:10:46.383Z,17.85
2023-03-24T20:13:13.299Z,26.05
2023-03-24T20:15:40.704Z,20.25
2023-03-24T20:18:09.921Z,22.30
2023-03-24T20:20:36.885Z,17.10
2023-03-24T20:23:03.930Z,20.02
2023-03-24T20:25:31.179Z,19.35
2023-03-24T20:27:58.271Z,16.45
2023-03-24T20:30:28.116Z,15.85
2023-03-24T20:32:58.477Z,15.02
2023-03-24T20:35:26.149Z,13.80
2023-03-24T20:37:54.416Z,11.98
2023-03-24T20:40:21.769Z,16.42
2023-03-24T20:42:49.028Z,17.10
2023-03-24T20:45:16.236Z,16.95
2023-03-24T20:47:43.435Z,18.05
2023-03-24T20:50:10.890Z,30.05
2023-03-24T20:52:38.085Z,112.60
2023-03-24T20:55:06.321Z,94.05
2023-03-24T20:57:33.908Z,50.55
2023-03-24T21:00:10.205Z,24.13
2023-03-24T21:02:38.140Z,18.42
2023-03-24T21:05:05.666Z,21.85
2023-03-24T21:07:32.659Z,22.48
2023-03-24T21:09:59.583Z,24.75
2023-03-24T21:12:26.580Z,24.70
2023-03-24T21:14:53.530Z,19.73
2023-03-24T21:17:20.578Z,122.93
2023-03-24T21:19:47.607Z,171.02
2023-03-24T21:22:15.384Z,133.57
2023-03-24T21:24:42.532Z,66.72
2023-03-24T21:27:09.570Z,36.30
2023-03-24T21:29:36.775Z,28.58
2023-03-24T21:32:03.840Z,23.48
2023-03-24T21:34:31.439Z,17.05
2023-03-24T21:37:01.574Z,17.05
2023-03-24T21:39:29.076Z,17.50
2023-03-24T21:41:56.090Z,15.73
2023-03-24T21:44:23.340Z,21.35
2023-03-24T21:46:50.342Z,14.95
2023-03-24T21:49:18.878Z,13.18
2023-03-24T21:51:46.755Z,18.73
2023-03-24T21:54:14.735Z,20.48
2023-03-24T21:56:41.777Z,27.55
2023-03-24T21:59:09.731Z,30.08
2023-03-24T22:01:36.922Z,28.17
2023-03-24T22:04:04.606Z,41.30
2023-03-24T22:06:37.354Z,39.53
2023-03-24T22:09:10.322Z,23.08
2023-03-24T22:14:09.420Z,15.98
2023-03-24T22:16:36.675Z,11.68
2023-03-24T22:19:03.820Z,13.70
2023-03-24T22:21:32.174Z,14.32
2023-03-24T22:23:59.196Z,13.57
2023-03-24T22:26:26.206Z,21.00
2023-03-24T22:28:55.912Z,18.63
2023-03-24T22:31:24.213Z,18.40
2023-03-24T22:33:51.537Z,14.13
2023-03-24T22:36:18.501Z,14.52
2023-03-24T22:38:45.583Z,15.93
2023-03-24T22:41:13.383Z,13.40
2023-03-24T22:43:41.611Z,13.55
2023-03-24T22:46:10.142Z,14.32
2023-03-24T22:48:38.930Z,13.73
2023-03-24T22:51:06.633Z,14.40
2023-03-24T22:53:33.617Z,14.32
2023-03-24T22:56:00.834Z,12.65
2023-03-24T22:58:27.871Z,15.93
2023-03-24T23:00:56.760Z,15.27
2023-03-24T23:03:23.873Z,9.15
2023-03-24T23:05:51.060Z,15.10
2023-03-24T23:08:19.263Z,23.35
2023-03-24T23:10:47.706Z,39.25
2023-03-24T23:13:16.955Z,49.35
2023-03-24T23:15:44.425Z,45.08
2023-03-24T23:18:11.876Z,39.10
2023-03-24T23:20:40.665Z,38.92
2023-03-24T23:23:07.861Z,33.80
2023-03-24T23:25:43.088Z,22.60
2023-03-24T23:28:11.767Z,22.00
2023-03-24T23:30:40.463Z,16.10
2023-03-24T23:33:08.240Z,15.95
2023-03-24T23:35:37.429Z,13.15
2023-03-24T23:38:05.414Z,14.23
2023-03-24T23:40:32.406Z,11.77
2023-03-24T23:42:59.740Z,12.30
2023-03-24T23:45:27.563Z,11.82
2023-03-24T23:47:54.811Z,10.15
2023-03-24T23:50:21.804Z,8.82
2023-03-24T23:52:48.870Z,10.85
2023-03-24T23:55:18.217Z,9.93
2023-03-24T23:57:46.323Z,11.27
